createdAt,value
2019-02-06T09:14:46.434Z,96538.97
2019-02-06T09:17:15.030Z,96535.69
2019-02-06T09:19:43.684Z,96537.06
2019-02-06T09:22:12.274Z,96535.78
2019-02-06T09:24:41.006Z,96534.81
2019-02-06T09:27:10.691Z,96537.29
2019-02-06T09:29:39.660Z,96543.04
2019-02-06T09:32:09.076Z,96545.05
2019-02-06T09:34:37.739Z,96543.09
2019-02-06T09:37:07.229Z,96532.43
2019-02-06T09:39:35.859Z,96543.55
2019-02-06T09:42:04.451Z,96538.70
2019-02-06T09:44:33.118Z,96543.50
2019-02-06T09:47:01.706Z,96533.53
2019-02-06T09:49:30.307Z,96532.86
2019-02-06T09:51:58.909Z,96528.34
2019-02-06T09:54:27.528Z,96523.63
2019-02-06T09:56:56.125Z,96521.36
2019-02-06T09:59:24.717Z,96518.04
2019-02-06T10:01:53.791Z,96520.62
2019-02-06T10:04:22.384Z,96511.69
2019-02-06T10:06:50.976Z,96512.91
2019-02-06T10:09:23.095Z,96508.91
2019-02-06T10:11:49.930Z,96509.55
2019-02-06T10:14:18.527Z,96511.41
2019-02-06T10:16:48.731Z,96510.51
2019-02-06T10:19:17.381Z,96510.51
2019-02-06T10:21:45.999Z,96506.10
2019-02-06T10:24:14.587Z,96500.06
2019-02-06T10:26:43.178Z,96500.45
2019-02-06T10:29:11.771Z,96495.59
2019-02-06T10:31:40.363Z,96491.54
2019-02-06T10:34:09.867Z,96491.67
2019-02-06T10:36:38.519Z,96481.60
2019-02-06T10:39:08.451Z,96479.75
2019-02-06T10:41:37.047Z,96474.78
2019-02-06T10:44:05.703Z,96481.61
2019-02-06T10:46:34.345Z,96471.89
2019-02-06T10:49:03.318Z,96464.87
2019-02-06T10:51:31.916Z,96467.98
2019-02-06T10:54:00.496Z,96469.78
2019-02-06T10:56:29.090Z,96468.31
2019-02-06T10:58:57.682Z,96464.01
2019-02-06T11:01:26.277Z,96454.77
2019-02-06T11:03:54.870Z,96449.79
2019-02-06T11:06:23.702Z,96442.70
2019-02-06T11:08:52.340Z,96444.83
2019-02-06T11:11:20.962Z,96435.81
2019-02-06T11:13:49.889Z,96432.23
2019-02-06T11:16:18.661Z,96428.52
2019-02-06T11:18:47.278Z,96435.31
2019-02-06T11:21:15.872Z,96432.57
2019-02-06T11:23:44.478Z,96425.98
2019-02-06T11:26:13.122Z,96416.87
2019-02-06T11:28:41.715Z,96412.70
2019-02-06T11:31:10.620Z,96415.09
2019-02-06T11:33:39.210Z,96413.75
2019-02-06T11:36:08.102Z,96410.05
2019-02-06T11:38:36.868Z,96407.03
2019-02-06T11:41:05.462Z,96402.48
2019-02-06T11:43:34.053Z,96392.16
2019-02-06T11:46:02.688Z,96391.80
2019-02-06T11:48:31.321Z,96386.27
2019-02-06T11:51:00.003Z,96385.07
2019-02-06T11:53:29.075Z,96376.80
2019-02-06T11:55:57.666Z,96375.98
2019-02-06T11:58:27.814Z,96374.27
2019-02-06T12:01:04.167Z,96365.47
2019-02-06T12:03:32.751Z,96368.46
2019-02-06T12:06:01.339Z,96362.64
2019-02-06T12:08:31.249Z,96361.78
2019-02-06T12:11:00.026Z,96363.20
2019-02-06T12:13:28.652Z,96355.72
2019-02-06T12:15:57.299Z,96355.25
2019-02-06T12:18:25.976Z,96352.53
2019-02-06T12:20:54.564Z,96349.13
2019-02-06T12:23:31.952Z,96347.05
2019-02-06T12:25:53.473Z,96344.42
2019-02-06T12:28:22.061Z,96343.83
2019-02-06T12:30:50.656Z,96337.52
2019-02-06T12:33:19.244Z,96333.24
2019-02-06T12:35:47.840Z,96327.83
2019-02-06T12:38:16.427Z,96318.23
2019-02-06T12:40:45.286Z,96322.03
2019-02-06T12:43:13.871Z,96322.57
2019-02-06T12:45:42.462Z,96324.23
2019-02-06T12:48:11.392Z,96311.44
2019-02-06T12:50:39.980Z,96314.52
2019-02-06T12:53:09.128Z,96305.99
2019-02-06T12:55:41.489Z,96305.77
2019-02-06T12:58:11.255Z,96305.27
2019-02-06T13:00:42.043Z,96297.31
2019-02-06T13:03:10.945Z,96293.25
2019-02-06T13:05:39.597Z,96292.19
2019-02-06T13:08:08.645Z,96287.25
2019-02-06T13:10:37.234Z,96279.73
2019-02-06T13:13:05.831Z,96284.88
2019-02-06T13:15:34.932Z,96273.39
2019-02-06T13:18:03.560Z,96268.22
2019-02-06T13:20:36.580Z,96268.88
2019-02-06T13:23:06.072Z,96265.55
2019-02-06T13:25:34.655Z,96264.09
2019-02-06T13:28:03.246Z,96261.60
2019-02-06T13:30:34.730Z,96259.60
2019-02-06T13:33:03.321Z,96252.51
2019-02-06T13:35:31.951Z,96252.80
2019-02-06T13:38:00.537Z,96245.67
2019-02-06T13:40:29.626Z,96252.59
2019-02-06T13:42:58.713Z,96251.34
2019-02-06T13:45:32.484Z,96236.41
2019-02-06T13:48:01.059Z,96233.34
2019-02-06T13:50:29.752Z,96234.46
2019-02-06T13:52:58.343Z,96228.61
2019-02-06T13:55:27.015Z,96218.24
2019-02-06T13:57:55.614Z,96215.99
2019-02-06T14:00:27.138Z,96209.41
2019-02-06T14:02:55.726Z,96204.17
2019-02-06T14:05:27.042Z,96206.49
2019-02-06T14:07:57.837Z,96196.45
2019-02-06T14:10:28.420Z,96195.55
2019-02-06T14:12:57.010Z,96196.69
2019-02-06T14:15:32.071Z,96194.73
2019-02-06T14:18:01.240Z,96191.28
2019-02-06T14:20:29.949Z,96196.88
2019-02-06T14:23:01.780Z,96191.52
2019-02-06T14:25:50.114Z,96189.30
2019-02-06T14:28:44.772Z,96197.14
2019-02-06T14:31:19.997Z,96186.56
2019-02-06T14:33:57.864Z,96185.38
2019-02-06T14:36:35.281Z,96190.78
2019-02-06T14:39:15.964Z,96190.80
2019-02-06T14:42:07.901Z,96190.72
2019-02-06T14:44:45.199Z,96186.18
2019-02-06T14:47:19.395Z,96179.73
2019-02-06T14:49:51.275Z,96174.72
2019-02-06T14:52:38.261Z,96171.05
2019-02-06T14:55:27.813Z,96168.82
2019-02-06T14:57:59.567Z,96167.73
2019-02-06T15:00:59.284Z,96169.30
2019-02-06T15:03:27.517Z,96169.50
2019-02-06T15:06:02.463Z,96171.12
2019-02-06T15:08:43.235Z,96166.73
2019-02-06T15:11:19.658Z,96165.80
2019-02-06T15:14:17.972Z,96160.23
2019-02-06T15:17:15.207Z,96160.86
2019-02-06T15:19:58.552Z,96151.23
2019-02-06T15:22:47.033Z,96153.16
2019-02-06T15:25:19.190Z,96151.17
2019-02-06T15:28:02.883Z,96152.16
2019-02-06T15:30:54.100Z,96156.77
2019-02-06T15:33:40.726Z,96151.67
2019-02-06T15:36:35.779Z,96149.12
2019-02-06T15:39:28.640Z,96142.41
2019-02-06T15:42:18.731Z,96135.91
2019-02-06T15:44:50.832Z,96137.86
2019-02-06T15:47:40.822Z,96136.08
2019-02-06T15:50:29.903Z,96130.89
2019-02-06T15:53:01.615Z,96133.59
2019-02-06T15:55:59.111Z,96124.22
2019-02-06T15:58:36.799Z,96130.14
2019-02-06T16:01:57.201Z,96123.77
2019-02-06T16:08:28.048Z,96122.05
2019-02-06T16:11:06.255Z,96122.47
2019-02-06T16:17:38.735Z,96119.48
2019-02-06T16:20:32.558Z,96115.85
2019-02-06T16:23:25.065Z,96126.12
2019-02-06T16:32:34.866Z,96112.01
2019-02-06T16:36:17.546Z,96106.95
2019-02-06T16:39:05.131Z,96112.88
2019-02-06T16:41:56.703Z,96110.44
2019-02-06T16:44:51.082Z,96110.14
2019-02-06T16:47:32.156Z,96108.05
2019-02-06T16:50:06.738Z,96117.59
2019-02-06T16:53:01.232Z,96117.98
2019-02-06T16:55:38.944Z,96117.78
2019-02-06T16:58:17.991Z,96123.19
2019-02-06T17:00:58.635Z,96123.48
2019-02-06T17:03:51.376Z,96127.84
2019-02-06T17:06:38.023Z,96128.56
2019-02-06T17:09:16.448Z,96130.34
2019-02-06T17:12:10.320Z,96125.57
2019-02-06T17:14:51.106Z,96124.41
2019-02-06T17:17:28.638Z,96125.22
2019-02-06T17:20:26.371Z,96127.84
2019-02-06T17:23:06.734Z,96124.19
2019-02-06T17:25:42.082Z,96126.20
2019-02-06T17:28:19.924Z,96129.86
2019-02-06T17:31:07.993Z,96125.73
2019-02-06T17:33:58.186Z,96118.91
2019-02-06T17:36:44.911Z,96120.20
2019-02-06T17:39:25.728Z,96124.33
2019-02-06T17:42:29.125Z,96123.13
2019-02-06T17:45:17.312Z,96126.11
2019-02-06T17:48:14.690Z,96125.75
2019-02-06T17:51:04.709Z,96124.89
2019-02-06T17:53:48.594Z,96116.80
2019-02-06T17:56:17.214Z,96135.72
2019-02-06T17:58:45.804Z,96129.72
2019-02-06T18:01:17.614Z,96129.23
2019-02-06T18:03:47.542Z,96138.33
2019-02-06T18:06:17.048Z,96137.49
2019-02-06T18:08:56.120Z,96139.70
2019-02-06T18:11:15.967Z,96134.89
2019-02-06T18:13:44.592Z,96129.48
2019-02-06T18:16:21.090Z,96136.13
2019-02-06T18:18:43.653Z,96139.28
2019-02-06T18:21:12.504Z,96140.08
2019-02-06T18:23:41.100Z,96147.38
2019-02-06T18:26:10.668Z,96142.72
2019-02-06T18:28:39.557Z,96149.73
2019-02-06T18:31:09.522Z,96149.00
2019-02-06T18:33:38.120Z,96146.83
2019-02-06T18:36:07.048Z,96139.84
2019-02-06T18:38:46.319Z,96125.19
2019-02-06T18:41:07.283Z,96131.08
2019-02-06T18:43:35.876Z,96129.80
2019-02-06T18:46:04.466Z,96135.89
2019-02-06T18:48:33.860Z,96137.94
2019-02-06T18:51:02.524Z,96136.91
2019-02-06T18:53:31.122Z,96135.89
2019-02-06T18:55:59.888Z,96131.82
2019-02-06T18:58:28.562Z,96123.84
2019-02-06T19:00:57.245Z,96121.16
2019-02-06T19:03:29.031Z,96124.20
2019-02-06T19:05:57.861Z,96122.18
2019-02-06T19:08:26.459Z,96129.65
2019-02-06T19:10:55.114Z,96123.69
2019-02-06T19:13:23.707Z,96120.09
2019-02-06T19:15:56.481Z,96114.20
2019-02-06T19:18:23.226Z,96115.42
2019-02-06T19:20:51.945Z,96117.28
2019-02-06T19:23:20.578Z,96114.84
2019-02-06T19:25:49.178Z,96115.86
2019-02-06T19:28:18.158Z,96114.20
2019-02-06T19:30:46.954Z,96108.28
2019-02-06T19:33:17.286Z,96107.80
2019-02-06T19:35:45.984Z,96105.88
2019-02-06T19:38:14.582Z,96103.20
2019-02-06T19:40:43.243Z,96101.44
2019-02-06T19:43:11.923Z,96096.39
2019-02-06T19:45:40.920Z,96096.70
2019-02-06T19:48:16.316Z,96089.72
2019-02-06T19:50:45.960Z,96091.13
2019-02-06T19:53:14.634Z,96084.14
2019-02-06T19:55:43.310Z,96079.44
2019-02-06T19:58:12.388Z,96069.27
2019-02-06T20:00:40.986Z,96072.26
2019-02-06T20:03:10.638Z,96074.91
2019-02-06T20:05:39.234Z,96065.43
2019-02-06T20:08:08.381Z,96063.30
2019-02-06T20:10:39.952Z,96062.83
2019-02-06T20:13:13.844Z,96068.86
2019-02-06T20:15:40.009Z,96076.19
2019-02-06T20:18:09.526Z,96076.52
2019-02-06T20:20:38.162Z,96062.78
2019-02-06T20:23:07.725Z,96057.84
2019-02-06T20:25:36.452Z,96062.06
2019-02-06T20:28:05.078Z,96059.38
2019-02-06T20:30:33.778Z,96059.16
2019-02-06T20:33:02.551Z,96054.61
2019-02-06T20:35:31.351Z,96063.27
2019-02-06T20:38:00.019Z,96060.93
2019-02-06T20:40:34.227Z,96059.20
2019-02-06T20:43:02.906Z,96059.31
2019-02-06T20:45:31.915Z,96066.38
2019-02-06T20:48:00.588Z,96068.28
2019-02-06T20:50:31.757Z,96075.67
2019-02-06T20:53:00.631Z,96071.08
2019-02-06T20:55:29.333Z,96060.69
2019-02-06T20:57:57.924Z,96065.12
2019-02-06T21:00:29.277Z,96067.64
2019-02-06T21:02:57.897Z,96072.15
2019-02-06T21:05:26.536Z,96071.31
2019-02-06T21:07:55.121Z,96079.45
2019-02-06T21:10:28.965Z,96079.25
2019-02-06T21:12:57.576Z,96076.25
2019-02-06T21:15:26.198Z,96069.91
2019-02-06T21:17:54.783Z,96070.80
2019-02-06T21:20:24.410Z,96062.55
2019-02-06T21:22:53.064Z,96059.47
2019-02-06T21:25:25.301Z,96056.71
2019-02-06T21:27:54.022Z,96051.27
2019-02-06T21:30:34.141Z,96058.69
2019-02-06T21:33:02.746Z,96055.38
2019-02-06T21:35:31.343Z,96055.33
2019-02-06T21:38:00.346Z,96054.89
2019-02-06T21:40:35.017Z,96053.98
2019-02-06T21:43:03.878Z,96059.28
2019-02-06T21:45:32.466Z,96053.59
2019-02-06T21:48:01.131Z,96057.15
2019-02-06T21:50:29.786Z,96052.77
2019-02-06T21:52:58.725Z,96055.13
2019-02-06T21:55:27.816Z,96048.81
2019-02-06T21:57:56.416Z,96050.16
2019-02-06T22:00:30.696Z,96044.80
2019-02-06T22:02:59.467Z,96041.91
2019-02-06T22:05:28.071Z,96042.58
2019-02-06T22:07:56.757Z,96042.42
2019-02-06T22:10:25.445Z,96042.78
2019-02-06T22:12:54.050Z,96036.98
2019-02-06T22:15:28.332Z,96037.48
2019-02-06T22:17:56.928Z,96028.72
2019-02-06T22:20:26.041Z,96040.05
2019-02-06T22:22:54.633Z,96044.90
2019-02-06T22:25:23.231Z,96049.31
2019-02-06T22:27:51.750Z,96039.14
2019-02-06T22:30:24.728Z,96029.87
2019-02-06T22:32:53.383Z,96038.23
2019-02-06T22:35:22.360Z,96029.51
2019-02-06T22:37:50.992Z,96028.92
2019-02-06T22:40:21.282Z,96027.86
2019-02-06T22:42:49.880Z,96032.47
2019-02-06T22:45:20.370Z,96027.77
2019-02-06T22:47:49.017Z,96013.03
2019-02-06T22:50:20.079Z,96016.92
2019-02-06T22:52:48.677Z,96017.21
2019-02-06T22:55:17.276Z,96006.35
2019-02-06T22:57:45.875Z,96005.52
2019-02-06T23:00:31.486Z,96019.20
2019-02-06T23:03:00.354Z,96002.39
2019-02-06T23:05:29.010Z,96004.06
2019-02-06T23:07:57.603Z,96008.98
2019-02-06T23:10:26.188Z,96016.38
2019-02-06T23:12:54.787Z,96018.55
2019-02-06T23:15:23.443Z,96018.86
2019-02-06T23:17:52.458Z,96021.94
2019-02-06T23:20:21.052Z,96020.75
2019-02-06T23:22:49.683Z,96019.57
2019-02-06T23:25:18.294Z,96017.95
2019-02-06T23:27:46.886Z,96009.94
2019-02-06T23:30:16.134Z,96003.46
2019-02-06T23:32:45.003Z,96005.95
2019-02-06T23:35:13.659Z,96001.41
2019-02-06T23:37:42.299Z,96008.33
2019-02-06T23:40:14.141Z,96006.77
2019-02-06T23:42:42.796Z,96007.46
2019-02-06T23:45:11.906Z,96001.81
2019-02-06T23:47:41.144Z,95994.66
2019-02-06T23:50:15.872Z,95993.69
2019-02-06T23:52:44.453Z,95987.47
2019-02-06T23:55:13.071Z,95985.34
2019-02-06T23:57:41.777Z,95988.45
